Time;durP1;ratioP1;P1;durP2;ratioP2;P2;SDS_P1;SDS_P2;PMS_P1;PMS_P2;Temp;Humidity;BMP_temperature;BMP_pressure;BME280_temperature;BME280_humidity;BME280_pressure;Samples;Min_cycle;Max_cycle;Signal;HPM_P1;HPM_P2
2023/07/16 00:01:36;;;;;;;4.10;1.90;;;;;;;20.87;52.66;100409.15;105807;1254;63694;-68
2023/07/16 00:04:04;;;;;;;3.20;2.00;;;;;;;20.92;52.63;100407.42;105688;1253;59691;-68
2023/07/16 00:06:31;;;;;;;4.40;2.30;;;;;;;20.91;52.67;100408.11;105580;1269;59740;-68
2023/07/16 00:09:00;;;;;;;3.10;2.10;;;;;;;20.87;52.73;100406.92;105526;1257;63119;-68
2023/07/16 00:11:27;;;;;;;2.90;2.20;;;;;;;20.84;52.96;100403.81;105683;1259;59631;-69
2023/07/16 00:13:56;;;;;;;3.90;2.00;;;;;;;20.80;53.01;100405.38;105793;1254;63904;-68
2023/07/16 00:16:23;;;;;;;3.40;2.30;;;;;;;20.75;53.02;100406.17;105492;1254;60004;-67
2023/07/16 00:18:50;;;;;;;3.40;2.30;;;;;;;20.67;53.16;100400.67;105499;1254;59641;-66
2023/07/16 00:21:17;;;;;;;6.60;2.40;;;;;;;20.59;53.44;100400.00;105649;1257;64383;-68
2023/07/16 00:23:44;;;;;;;3.90;2.30;;;;;;;20.51;53.69;100399.80;105494;1260;59644;-69
2023/07/16 00:26:13;;;;;;;5.30;2.30;;;;;;;20.42;54.10;100401.38;105586;1261;64946;-66
2023/07/16 00:28:41;;;;;;;6.10;2.50;;;;;;;20.37;54.33;100405.76;105431;1257;59701;-66
2023/07/16 00:31:08;;;;;;;3.00;2.30;;;;;;;20.33;54.33;100406.93;105625;1258;59508;-66
2023/07/16 00:33:35;;;;;;;3.60;2.40;;;;;;;20.28;54.40;100406.83;105839;1256;64450;-67
2023/07/16 00:36:02;;;;;;;3.20;2.30;;;;;;;20.24;54.57;100404.20;105501;1257;59748;-67
2023/07/16 00:38:30;;;;;;;4.10;2.40;;;;;;;20.21;54.77;100403.17;105783;1257;64163;-68
2023/07/16 00:40:57;;;;;;;3.00;2.30;;;;;;;20.18;54.94;100402.44;105594;1262;59682;-68
2023/07/16 00:43:25;;;;;;;4.20;2.10;;;;;;;20.14;55.05;100403.10;105786;1254;59650;-67
2023/07/16 00:45:52;;;;;;;4.50;2.30;;;;;;;20.11;54.96;100400.84;105656;1259;64221;-67
2023/07/16 00:48:19;;;;;;;4.30;2.40;;;;;;;20.11;54.89;100397.58;106129;1260;59538;-66
2023/07/16 00:50:46;;;;;;;5.60;2.40;;;;;;;20.11;54.78;100398.83;106072;1254;63939;-67
2023/07/16 00:53:13;;;;;;;2.80;2.20;;;;;;;20.12;54.79;100398.54;105969;1253;59632;-68
2023/07/16 00:55:41;;;;;;;3.60;2.30;;;;;;;20.10;54.90;100402.39;105515;1259;59689;-69
2023/07/16 00:58:08;;;;;;;5.10;2.30;;;;;;;20.06;55.00;100405.38;105778;1258;64298;-71
2023/07/16 01:00:37;;;;;;;2.90;2.40;;;;;;;20.00;55.09;100405.67;105759;1257;59617;-68
2023/07/16 01:03:09;;;;;;;4.30;2.20;;;;;;;19.96;55.21;100404.36;105939;1260;63805;-68
2023/07/16 01:06:16;;;;;;;3.00;2.10;;;;;;;19.93;55.40;100405.42;105740;1262;59600;-67
2023/07/16 01:08:53;;;;;;;2.50;2.20;;;;;;;19.91;55.52;100403.05;106047;1254;59638;-68
2023/07/16 01:11:20;;;;;;;3.80;2.40;;;;;;;19.92;55.34;100402.86;105571;1255;64315;-67
2023/07/16 01:13:47;;;;;;;6.20;2.50;;;;;;;19.96;55.40;100404.15;105792;1256;59637;-67
2023/07/16 01:16:22;;;;;;;4.60;2.40;;;;;;;20.00;55.22;100411.90;105621;1259;63986;-67
2023/07/16 01:18:50;;;;;;;3.00;2.20;;;;;;;20.03;55.26;100407.23;105465;1255;59684;-68
2023/07/16 01:21:19;;;;;;;3.60;2.30;;;;;;;20.07;55.21;100407.20;105387;1254;59647;-67
2023/07/16 01:24:15;;;;;;;3.60;2.10;;;;;;;20.12;54.97;100404.77;105490;1256;62895;-69
2023/07/16 01:27:01;;;;;;;3.30;2.20;;;;;;;20.23;54.53;100406.96;105678;1257;59652;-67
2023/07/16 01:29:48;;;;;;;5.00;2.20;;;;;;;20.37;54.13;100409.89;105257;1254;63856;-68
2023/07/16 01:32:15;;;;;;;3.90;2.00;;;;;;;20.46;53.80;100407.99;105676;1255;59565;-66
2023/07/16 01:34:42;;;;;;;5.40;2.00;;;;;;;20.52;53.78;100410.20;105695;1253;59672;-67
2023/07/16 01:37:09;;;;;;;4.50;2.30;;;;;;;20.55;53.64;100415.73;105548;1255;64446;-67
2023/07/16 01:39:36;;;;;;;3.60;2.20;;;;;;;20.57;53.42;100414.92;105589;1254;59783;-68
2023/07/16 01:42:04;;;;;;;4.00;2.10;;;;;;;20.58;53.44;100415.76;105721;1254;64078;-67
2023/07/16 01:44:30;;;;;;;3.90;2.20;;;;;;;20.55;53.37;100415.91;105648;1256;59719;-67
2023/07/16 01:47:29;;;;;;;3.90;2.20;;;;;;;20.52;53.24;100418.63;105392;1254;59723;-68
2023/07/16 01:49:57;;;;;;;5.50;2.50;;;;;;;20.53;53.14;100419.15;105531;1260;64339;-68
2023/07/16 01:52:23;;;;;;;5.30;2.30;;;;;;;20.54;53.08;100418.45;105375;1263;59746;-70
2023/07/16 01:54:50;;;;;;;3.40;2.30;;;;;;;20.52;53.13;100419.83;105347;1260;64152;-69
2023/07/16 01:57:21;;;;;;;3.80;2.40;;;;;;;20.53;52.88;100416.66;105625;1257;59544;-66
2023/07/16 01:59:48;;;;;;;6.30;2.50;;;;;;;20.56;52.79;100418.45;105352;1260;59612;-67
2023/07/16 02:02:15;;;;;;;4.60;2.40;;;;;;;20.62;52.34;100417.77;105891;1254;64338;-69
2023/07/16 02:04:44;;;;;;;8.30;2.50;;;;;;;20.67;52.20;100416.11;105460;1262;59637;-67
2023/07/16 02:07:11;;;;;;;3.50;2.40;;;;;;;20.70;52.10;100418.79;105783;1259;63908;-68
2023/07/16 02:09:38;;;;;;;4.40;2.40;;;;;;;20.72;52.10;100419.02;105215;1262;59572;-67
2023/07/16 02:12:06;;;;;;;5.90;2.10;;;;;;;20.74;52.03;100418.42;105659;1260;60004;-67
2023/07/16 02:14:33;;;;;;;3.80;2.30;;;;;;;20.73;51.97;100418.84;105648;1254;62861;-68
2023/07/16 02:17:00;;;;;;;4.00;2.20;;;;;;;20.74;51.77;100420.04;105440;1257;59841;-71
2023/07/16 02:19:27;;;;;;;3.70;2.30;;;;;;;20.76;51.84;100422.10;105642;1255;64004;-68
2023/07/16 02:21:55;;;;;;;4.40;2.40;;;;;;;20.78;51.77;100419.94;105654;1259;59662;-72
2023/07/16 02:24:23;;;;;;;4.80;2.30;;;;;;;20.79;51.63;100419.25;105269;1256;59740;-68
2023/07/16 02:26:51;;;;;;;3.20;2.40;;;;;;;20.81;51.73;100422.70;105289;1263;64567;-72
2023/07/16 02:29:19;;;;;;;3.60;2.40;;;;;;;20.79;51.78;100423.95;105514;1254;59800;-68
2023/07/16 02:31:48;;;;;;;3.30;2.20;;;;;;;20.73;52.05;100426.05;105425;1260;64032;-68
2023/07/16 02:34:15;;;;;;;3.40;2.40;;;;;;;20.69;52.16;100423.20;105347;1253;59650;-68
2023/07/16 02:36:43;;;;;;;3.50;2.30;;;;;;;20.65;52.22;100424.25;105704;1253;59743;-69
2023/07/16 02:39:10;;;;;;;2.90;2.40;;;;;;;20.62;52.32;100422.44;105663;1257;64296;-69
2023/07/16 02:41:37;;;;;;;4.10;2.30;;;;;;;20.61;52.33;100423.66;105626;1256;59659;-71
2023/07/16 02:44:05;;;;;;;4.30;2.40;;;;;;;20.60;52.51;100424.45;105587;1257;64081;-73
2023/07/16 02:46:32;;;;;;;3.70;2.30;;;;;;;20.55;52.65;100426.44;105691;1260;59644;-68
2023/07/16 02:49:00;;;;;;;4.50;2.20;;;;;;;20.50;52.78;100428.31;105565;1259;59627;-68
2023/07/16 02:51:27;;;;;;;2.80;2.40;;;;;;;20.47;53.05;100426.17;105272;1263;64405;-68
2023/07/16 02:53:54;;;;;;;4.40;2.50;;;;;;;20.46;53.19;100425.70;105721;1257;59738;-69
2023/07/16 02:56:20;;;;;;;3.70;2.50;;;;;;;20.47;53.18;100429.20;105589;1260;64003;-70
2023/07/16 02:58:48;;;;;;;4.20;2.40;;;;;;;20.46;53.38;100427.72;105875;1259;59570;-65
2023/07/16 03:01:15;;;;;;;6.20;2.40;;;;;;;20.48;53.36;100430.39;105702;1260;59654;-68
2023/07/16 03:03:42;;;;;;;5.10;2.60;;;;;;;20.46;53.50;100431.44;105714;1255;63262;-72
2023/07/16 03:06:10;;;;;;;4.60;2.40;;;;;;;20.45;53.54;100433.96;105611;1260;59753;-67
2023/07/16 03:08:37;;;;;;;4.70;2.20;;;;;;;20.44;53.83;100436.52;105830;1257;63829;-70
2023/07/16 03:11:04;;;;;;;2.90;2.40;;;;;;;20.43;53.96;100438.95;106080;1256;59532;-69
2023/07/16 03:13:31;;;;;;;5.60;2.60;;;;;;;20.44;53.91;100437.75;105905;1254;59653;-71
2023/07/16 03:15:58;;;;;;;3.70;2.50;;;;;;;20.49;53.70;100437.75;105749;1257;64342;-72
2023/07/16 03:18:29;;;;;;;4.50;2.20;;;;;;;20.55;53.75;100440.33;105747;1254;59625;-73
2023/07/16 03:20:57;;;;;;;3.70;2.50;;;;;;;20.60;53.82;100440.88;105660;1260;64135;-75
2023/07/16 03:23:25;;;;;;;5.10;2.50;;;;;;;20.63;53.62;100440.00;105469;1256;59801;-72
2023/07/16 03:25:52;;;;;;;2.90;2.20;;;;;;;20.67;53.48;100441.61;105638;1258;59618;-69
2023/07/16 03:28:20;;;;;;;4.60;2.60;;;;;;;20.71;53.64;100442.42;105629;1254;64284;-70
2023/07/16 03:30:50;;;;;;;4.40;2.80;;;;;;;20.75;53.55;100439.66;105612;1254;59704;-71
2023/07/16 03:33:19;;;;;;;7.30;2.20;;;;;;;20.80;53.16;100441.35;105445;1261;63088;-68
2023/07/16 03:35:47;;;;;;;5.10;2.40;;;;;;;20.85;53.20;100439.95;105456;1260;59619;-68
2023/07/16 03:38:14;;;;;;;3.00;2.50;;;;;;;20.92;53.03;100442.17;105505;1257;59721;-71
2023/07/16 03:40:45;;;;;;;5.60;2.40;;;;;;;20.98;52.78;100443.61;105731;1267;72956;-69
2023/07/16 03:43:12;;;;;;;5.30;2.10;;;;;;;21.04;52.65;100446.61;105591;1254;59556;-68
2023/07/16 03:45:40;;;;;;;3.60;2.30;;;;;;;21.09;52.45;100445.73;105402;1260;63942;-67
2023/07/16 03:48:08;;;;;;;3.40;2.30;;;;;;;21.15;52.35;100448.95;105529;1257;60617;-68
2023/07/16 03:50:37;;;;;;;4.10;2.40;;;;;;;21.23;52.19;100450.40;105404;1255;60559;-69
2023/07/16 03:53:04;;;;;;;5.10;2.20;;;;;;;21.29;52.25;100454.75;105791;1259;65183;-67
2023/07/16 03:55:31;;;;;;;3.20;2.50;;;;;;;21.35;52.24;100450.98;106071;1257;60473;-66
2023/07/16 03:57:58;;;;;;;4.00;2.40;;;;;;;21.42;52.09;100449.23;105571;1254;63981;-68
2023/07/16 04:00:26;;;;;;;4.50;2.30;;;;;;;21.50;52.27;100454.70;105561;1254;60377;-73
2023/07/16 04:02:54;;;;;;;4.60;2.50;;;;;;;21.57;52.16;100456.88;105713;1260;60799;-67
2023/07/16 04:05:21;;;;;;;3.70;2.30;;;;;;;21.65;52.13;100460.34;105482;1263;64882;-68
2023/07/16 04:07:51;;;;;;;4.20;2.60;;;;;;;21.74;51.89;100462.70;105674;1255;60539;-66
2023/07/16 04:10:18;;;;;;;4.30;2.60;;;;;;;21.81;51.84;100465.85;105940;1260;62643;-67
2023/07/16 04:12:45;;;;;;;4.60;2.80;;;;;;;21.89;51.67;100467.43;105948;1257;60334;-66
2023/07/16 04:15:12;;;;;;;5.00;2.50;;;;;;;21.95;51.59;100466.58;106156;1255;60534;-66
2023/07/16 04:17:40;;;;;;;3.60;2.50;;;;;;;22.03;51.41;100469.05;105808;1257;65066;-69
2023/07/16 04:20:07;;;;;;;5.00;2.30;;;;;;;22.13;51.39;100472.09;105605;1263;60549;-67
2023/07/16 04:22:35;;;;;;;4.60;2.50;;;;;;;22.19;51.43;100473.61;105679;1263;64032;-66
2023/07/16 04:25:03;;;;;;;3.20;2.20;;;;;;;22.24;51.24;100474.80;105893;1260;60549;-68
2023/07/16 04:27:30;;;;;;;3.60;2.30;;;;;;;22.30;51.22;100469.38;105673;1254;60482;-68
2023/07/16 04:30:03;;;;;;;4.30;2.50;;;;;;;22.36;51.16;100473.81;106102;1254;67018;-68
2023/07/16 04:32:30;;;;;;;3.80;2.40;;;;;;;22.41;50.77;100477.66;105516;1260;60483;-69
2023/07/16 04:34:58;;;;;;;6.50;2.50;;;;;;;22.46;50.47;100475.73;105557;1254;63907;-67
2023/07/16 04:37:25;;;;;;;5.40;2.30;;;;;;;22.50;50.10;100476.27;105713;1254;60617;-70
2023/07/16 04:39:55;;;;;;;2.90;2.10;;;;;;;22.54;49.74;100473.39;105543;1254;60418;-73
2023/07/16 04:42:22;;;;;;;4.10;2.40;;;;;;;22.60;49.47;100472.81;105832;1257;64089;-68
2023/07/16 04:44:49;;;;;;;4.20;2.40;;;;;;;22.67;49.33;100474.33;105974;1258;60422;-68
2023/07/16 04:47:16;;;;;;;3.80;2.50;;;;;;;22.61;49.28;100472.95;105827;1257;63894;-68
2023/07/16 04:49:44;;;;;;;2.80;2.00;;;;;;;22.72;49.19;100473.71;105686;1254;60414;-66
2023/07/16 04:52:11;;;;;;;5.20;2.40;;;;;;;22.89;49.05;100471.97;105415;1254;60513;-68
2023/07/16 04:54:40;;;;;;;4.80;2.30;;;;;;;22.94;49.06;100473.93;105707;1258;65231;-67
2023/07/16 04:57:07;;;;;;;3.80;2.20;;;;;;;22.97;49.17;100471.10;105684;1259;60481;-70
2023/07/16 04:59:35;;;;;;;3.60;2.40;;;;;;;23.02;48.99;100472.73;105730;1255;64004;-69
2023/07/16 05:02:05;;;;;;;4.60;2.50;;;;;;;23.08;48.95;100471.98;105743;1252;60418;-68
2023/07/16 05:04:33;;;;;;;4.90;2.70;;;;;;;23.14;48.99;100475.35;105737;1254;60511;-74
2023/07/16 05:07:02;;;;;;;5.30;2.70;;;;;;;23.21;49.20;100477.00;105477;1260;65157;-67
2023/07/16 05:09:29;;;;;;;4.00;2.80;;;;;;;23.27;49.17;100479.43;105522;1259;60503;-68
2023/07/16 05:11:56;;;;;;;4.50;2.40;;;;;;;23.32;49.05;100480.07;105381;1255;63678;-68
2023/07/16 05:14:27;;;;;;;6.90;2.60;;;;;;;23.37;48.96;100482.87;105742;1257;60370;-69
2023/07/16 05:16:55;;;;;;;3.90;2.40;;;;;;;23.45;48.86;100487.23;105534;1253;60443;-66
2023/07/16 05:19:22;;;;;;;5.30;2.60;;;;;;;23.51;48.50;100490.07;105389;1254;63924;-68
2023/07/16 05:21:49;;;;;;;3.10;2.50;;;;;;;23.58;48.23;100489.20;105668;1258;60509;-67
2023/07/16 05:24:16;;;;;;;5.20;2.40;;;;;;;23.65;48.08;100491.67;105741;1254;63899;-73
2023/07/16 05:26:43;;;;;;;4.00;2.30;;;;;;;23.68;48.07;100494.76;105980;1254;60438;-69
2023/07/16 05:29:10;;;;;;;3.60;2.50;;;;;;;23.75;47.94;100495.69;105382;1254;60478;-67
2023/07/16 05:31:42;;;;;;;4.40;3.00;;;;;;;23.83;47.90;100496.61;105506;1253;65285;-69
2023/07/16 05:34:09;;;;;;;4.40;2.50;;;;;;;23.91;47.80;100494.38;105717;1254;60539;-68
2023/07/16 05:36:36;;;;;;;6.80;2.30;;;;;;;24.00;47.64;100497.95;105883;1257;64088;-68
2023/07/16 05:39:02;;;;;;;3.60;2.10;;;;;;;24.06;47.11;100500.57;105338;1261;60428;-68
2023/07/16 05:41:30;;;;;;;4.90;2.60;;;;;;;24.11;46.63;100501.11;105729;1255;60476;-67
2023/07/16 05:43:57;;;;;;;2.80;2.20;;;;;;;24.16;46.44;100501.49;105710;1258;65046;-72
2023/07/16 05:46:25;;;;;;;4.90;2.20;;;;;;;24.23;46.34;100500.13;105595;1254;60418;-70
2023/07/16 05:48:52;;;;;;;5.00;2.00;;;;;;;24.31;45.98;100502.30;105328;1254;63968;-68
2023/07/16 05:51:20;;;;;;;6.00;2.50;;;;;;;24.40;45.56;100505.80;105946;1253;60415;-72
2023/07/16 05:53:47;;;;;;;2.40;1.90;;;;;;;24.50;45.14;100505.16;105809;1254;60443;-67
2023/07/16 05:56:15;;;;;;;22.10;6.10;;;;;;;24.61;44.68;100500.45;105537;1258;65202;-68
2023/07/16 05:58:43;;;;;;;44.60;11.30;;;;;;;24.73;44.38;100502.84;105392;1254;60428;-66
2023/07/16 06:01:10;;;;;;;30.30;9.40;;;;;;;24.85;43.93;100502.80;105630;1254;63977;-66
2023/07/16 06:03:38;;;;;;;11.30;4.50;;;;;;;24.94;43.47;100505.14;105591;1254;60376;-69
2023/07/16 06:06:05;;;;;;;9.30;2.90;;;;;;;25.03;43.38;100505.52;105409;1254;60434;-67
2023/07/16 06:08:32;;;;;;;6.60;2.60;;;;;;;25.12;43.29;100507.53;105657;1257;65207;-72
2023/07/16 06:10:59;;;;;;;5.90;2.50;;;;;;;25.23;43.82;100511.10;105502;1254;60594;-68
2023/07/16 06:13:26;;;;;;;4.00;2.10;;;;;;;25.35;44.12;100510.52;105701;1254;63810;-69
2023/07/16 06:15:53;;;;;;;5.00;2.30;;;;;;;25.45;43.94;100514.17;105858;1256;60412;-70
2023/07/16 06:18:21;;;;;;;2.40;1.70;;;;;;;25.52;43.64;100515.46;105685;1252;60443;-68
2023/07/16 06:20:50;;;;;;;4.30;1.90;;;;;;;25.58;42.86;100517.30;105632;1257;73853;-68
2023/07/16 06:23:17;;;;;;;2.70;2.00;;;;;;;25.62;42.46;100515.83;105660;1255;60487;-68
2023/07/16 06:25:44;;;;;;;3.70;2.00;;;;;;;25.66;42.13;100515.63;105699;1254;63880;-66
2023/07/16 06:28:11;;;;;;;3.20;2.00;;;;;;;25.68;41.53;100515.89;105515;1254;60482;-67
2023/07/16 06:30:39;;;;;;;4.00;1.90;;;;;;;25.71;41.40;100516.02;105676;1254;60437;-67
2023/07/16 06:33:06;;;;;;;2.60;1.70;;;;;;;25.74;41.20;100513.13;105866;1254;65009;-68
2023/07/16 06:35:34;;;;;;;2.70;1.90;;;;;;;25.79;41.25;100513.09;105535;1257;60449;-69
2023/07/16 06:38:01;;;;;;;2.50;1.70;;;;;;;25.87;41.49;100514.91;106224;1254;62786;-68
2023/07/16 06:40:28;;;;;;;3.00;2.00;;;;;;;25.92;41.51;100518.04;109253;1254;58934;-68
2023/07/16 06:42:55;;;;;;;2.90;2.00;;;;;;;25.97;41.33;100524.46;109296;1253;61409;-68
2023/07/16 06:45:22;;;;;;;3.60;2.10;;;;;;;26.02;41.88;100530.17;106581;1254;65174;-67
2023/07/16 06:47:49;;;;;;;3.70;2.40;;;;;;;26.11;42.41;100526.61;105428;1259;60431;-71
2023/07/16 06:50:16;;;;;;;3.80;2.10;;;;;;;26.16;42.57;100525.41;105368;1260;63870;-67
2023/07/16 06:52:44;;;;;;;4.70;1.90;;;;;;;26.22;42.42;100526.52;105792;1254;60386;-69
2023/07/16 06:55:11;;;;;;;4.10;2.50;;;;;;;26.29;42.21;100532.27;105476;1254;60415;-69
2023/07/16 06:57:38;;;;;;;3.40;2.30;;;;;;;26.35;41.96;100530.13;105548;1260;65740;-69
2023/07/16 07:00:10;;;;;;;3.40;2.20;;;;;;;26.39;42.37;100529.62;105593;1259;60449;-69
2023/07/16 07:02:37;;;;;;;3.60;2.10;;;;;;;26.43;42.50;100531.30;105515;1260;62837;-68
2023/07/16 07:05:05;;;;;;;3.70;2.20;;;;;;;26.46;41.87;100528.28;105658;1258;61284;-69
2023/07/16 07:07:32;;;;;;;3.40;2.10;;;;;;;26.50;41.65;100526.52;105335;1254;61136;-69
2023/07/16 07:09:59;;;;;;;4.40;1.80;;;;;;;26.54;41.55;100526.38;105444;1256;65189;-69
2023/07/16 07:12:26;;;;;;;4.10;1.90;;;;;;;26.56;41.59;100525.27;105327;1260;60638;-71
2023/07/16 07:14:54;;;;;;;3.40;2.00;;;;;;;26.66;41.81;100522.83;105735;1254;64136;-69
2023/07/16 07:17:21;;;;;;;4.10;1.90;;;;;;;26.76;41.21;100521.30;105630;1254;61967;-72
2023/07/16 07:19:49;;;;;;;4.40;1.60;;;;;;;26.80;40.42;100528.96;105666;1260;60409;-70
2023/07/16 07:22:15;;;;;;;2.30;1.80;;;;;;;26.83;39.52;100531.08;105493;1257;65052;-69
2023/07/16 07:24:44;;;;;;;4.00;1.70;;;;;;;26.89;39.25;100529.09;105771;1257;60450;-67
2023/07/16 07:27:11;;;;;;;4.80;2.00;;;;;;;26.98;39.25;100529.78;105835;1254;63912;-70
2023/07/16 07:29:38;;;;;;;3.40;1.70;;;;;;;27.02;39.55;100531.94;105226;1254;61010;-70
2023/07/16 07:32:06;;;;;;;2.80;1.90;;;;;;;27.06;39.51;100530.86;105919;1254;60443;-69
2023/07/16 07:34:33;;;;;;;2.30;1.80;;;;;;;27.11;39.41;100531.84;105399;1257;65001;-69
2023/07/16 07:37:00;;;;;;;2.80;1.80;;;;;;;27.17;39.00;100530.80;105319;1254;60552;-69
2023/07/16 07:39:27;;;;;;;3.00;1.80;;;;;;;27.23;38.75;100528.23;105645;1257;62721;-68
2023/07/16 07:41:54;;;;;;;2.90;1.80;;;;;;;27.29;38.63;100526.33;105430;1257;60565;-71
2023/07/16 07:44:21;;;;;;;6.20;1.70;;;;;;;27.38;38.20;100527.67;105419;1254;60533;-72
2023/07/16 07:46:48;;;;;;;4.40;1.90;;;;;;;27.46;37.46;100522.30;105542;1254;65873;-69
2023/07/16 07:49:15;;;;;;;3.60;1.70;;;;;;;27.53;37.20;100520.17;105695;1254;60421;-68
2023/07/16 07:51:43;;;;;;;5.00;1.60;;;;;;;27.55;37.63;100518.21;105557;1254;64050;-68
2023/07/16 07:54:11;;;;;;;4.70;1.80;;;;;;;27.59;38.03;100516.91;105582;1257;60344;-71
2023/07/16 07:56:40;;;;;;;3.20;1.90;;;;;;;27.70;37.70;100521.42;105665;1254;60551;-69
2023/07/16 07:59:06;;;;;;;5.00;1.70;;;;;;;27.80;36.93;100521.02;105521;1254;65618;-70
2023/07/16 08:01:35;;;;;;;5.80;1.80;;;;;;;27.89;36.74;100520.06;105611;1260;60399;-68
2023/07/16 08:04:03;;;;;;;3.90;1.80;;;;;;;27.98;37.53;100516.29;105890;1254;63975;-69
2023/07/16 08:06:31;;;;;;;4.10;1.90;;;;;;;28.11;36.40;100516.17;105475;1257;60348;-69
2023/07/16 08:08:58;;;;;;;2.90;1.80;;;;;;;28.14;35.56;100513.81;105090;1254;60440;-68
2023/07/16 08:11:25;;;;;;;5.50;1.60;;;;;;;28.19;35.56;100512.48;105585;1257;65596;-71
2023/07/16 08:13:53;;;;;;;3.40;1.60;;;;;;;28.26;35.29;100511.95;105451;1257;60542;-69
2023/07/16 08:16:20;;;;;;;3.40;1.50;;;;;;;28.35;34.66;100511.69;105177;1261;62463;-70
2023/07/16 08:18:47;;;;;;;3.30;1.50;;;;;;;28.39;34.32;100514.17;105792;1254;60421;-68
2023/07/16 08:21:19;;;;;;;3.90;1.70;;;;;;;28.48;33.88;100506.51;105297;1254;60901;-66
2023/07/16 08:23:49;;;;;;;1.50;1.30;;;;;;;28.53;34.07;100503.80;105530;1254;64039;-69
2023/07/16 08:26:17;;;;;;;3.30;1.50;;;;;;;28.72;33.88;100505.36;105354;1262;60453;-71
2023/07/16 08:28:44;;;;;;;2.40;1.80;;;;;;;28.86;33.04;100502.80;105520;1254;63964;-68
2023/07/16 08:31:12;;;;;;;2.50;1.60;;;;;;;28.91;32.44;100498.45;105749;1257;60331;-67
2023/07/16 08:33:40;;;;;;;2.40;1.40;;;;;;;28.92;32.42;100499.30;105969;1257;60392;-69
2023/07/16 08:36:06;;;;;;;3.10;1.50;;;;;;;28.96;32.36;100500.60;105309;1254;65236;-68
2023/07/16 08:38:33;;;;;;;3.10;1.70;;;;;;;29.01;32.14;100498.14;105521;1257;60533;-67
2023/07/16 08:41:01;;;;;;;1.70;1.40;;;;;;;29.08;32.18;100497.14;105686;1257;63810;-68
2023/07/16 08:43:28;;;;;;;2.10;1.40;;;;;;;29.16;31.90;100498.88;105736;1257;60453;-68
2023/07/16 08:45:55;;;;;;;3.20;1.70;;;;;;;29.24;32.86;100498.23;105559;1253;60399;-68
2023/07/16 08:48:22;;;;;;;3.60;1.70;;;;;;;29.32;32.48;100499.70;105461;1254;65197;-68
2023/07/16 08:50:50;;;;;;;2.20;1.40;;;;;;;29.41;31.68;100495.14;105550;1259;60469;-67
2023/07/16 08:53:18;;;;;;;2.20;1.40;;;;;;;29.50;31.39;100495.52;105560;1254;63901;-67
2023/07/16 08:55:46;;;;;;;2.00;1.50;;;;;;;29.63;31.77;100498.04;105604;1254;60444;-68
2023/07/16 08:58:18;;;;;;;2.10;1.50;;;;;;;29.74;31.16;100501.39;105408;1259;60405;-68
2023/07/16 09:00:45;;;;;;;2.70;1.60;;;;;;;29.83;31.01;100500.51;105290;1254;65177;-68
2023/07/16 09:03:13;;;;;;;2.80;1.40;;;;;;;29.92;31.21;100500.02;105508;1257;60398;-68
2023/07/16 09:05:40;;;;;;;5.90;1.60;;;;;;;30.03;31.68;100500.25;105545;1252;63883;-67
2023/07/16 09:08:07;;;;;;;4.40;1.50;;;;;;;30.14;31.39;100503.62;105748;1254;60380;-69
2023/07/16 09:10:36;;;;;;;2.90;1.60;;;;;;;30.27;30.84;100500.30;105440;1254;60476;-68
2023/07/16 09:13:03;;;;;;;4.40;1.50;;;;;;;30.40;30.74;100505.89;105229;1262;65811;-68
2023/07/16 09:15:33;;;;;;;3.70;1.50;;;;;;;30.46;30.56;100500.80;105383;1254;60540;-69
2023/07/16 09:18:00;;;;;;;3.70;1.50;;;;;;;30.55;29.52;100502.08;105541;1254;65616;-69
2023/07/16 09:20:30;;;;;;;2.40;1.50;;;;;;;30.63;29.65;100494.79;106020;1253;60971;-69
2023/07/16 09:22:59;;;;;;;3.10;1.70;;;;;;;30.77;30.52;100498.81;105989;1254;60335;-68
2023/07/16 09:25:29;;;;;;;3.20;1.40;;;;;;;30.91;30.43;100495.79;105236;1253;64200;-71
2023/07/16 09:28:03;;;;;;;2.70;1.60;;;;;;;31.04;30.32;100492.79;105549;1262;60600;-69
2023/07/16 09:30:33;;;;;;;2.20;1.50;;;;;;;31.17;30.14;100494.54;105709;1254;62792;-70
2023/07/16 09:33:22;;;;;;;4.30;1.50;;;;;;;31.31;29.82;100498.49;105924;1255;60527;-72
2023/07/16 09:35:50;;;;;;;2.40;1.60;;;;;;;31.45;29.73;100503.07;105531;1254;60401;-71
2023/07/16 09:38:17;;;;;;;4.80;1.60;;;;;;;31.54;30.21;100505.02;105869;1256;63762;-69
2023/07/16 09:40:45;;;;;;;2.40;1.40;;;;;;;31.63;30.06;100502.71;107008;1253;60441;-69
2023/07/16 09:43:12;;;;;;;3.60;1.60;;;;;;;31.66;29.36;100500.45;107454;1254;64097;-68
2023/07/16 09:45:41;;;;;;;4.40;1.90;;;;;;;31.69;29.25;100500.91;106496;1253;60355;-69
2023/07/16 09:48:09;;;;;;;3.00;1.60;;;;;;;31.71;29.19;100498.69;105948;1254;60534;-69
2023/07/16 09:50:36;;;;;;;4.30;1.50;;;;;;;31.71;29.07;100493.39;106032;1257;65108;-68
2023/07/16 09:53:04;;;;;;;3.60;1.50;;;;;;;31.71;29.74;100494.98;105641;1254;60502;-69
2023/07/16 09:55:33;;;;;;;2.90;1.60;;;;;;;31.76;29.85;100493.09;105600;1254;64379;-69
2023/07/16 09:58:05;;;;;;;1.90;1.50;;;;;;;31.84;29.70;100492.84;106359;1254;60425;-71
2023/07/16 10:00:36;;;;;;;2.90;1.80;;;;;;;31.89;28.85;100488.52;105718;1254;60469;-70
2023/07/16 10:03:07;;;;;;;2.80;1.50;;;;;;;31.89;28.84;100486.77;105484;1261;64055;-71
2023/07/16 10:05:37;;;;;;;2.00;1.50;;;;;;;31.97;29.32;100484.80;105496;1254;60437;-70
2023/07/16 10:08:04;;;;;;;3.70;1.70;;;;;;;32.05;28.91;100485.31;106142;1254;63728;-70
2023/07/16 10:10:43;;;;;;;2.80;1.70;;;;;;;32.03;28.92;100477.63;105843;1254;60456;-71
2023/07/16 10:13:14;;;;;;;3.80;1.50;;;;;;;32.05;29.42;100479.19;105933;1254;60486;-72
2023/07/16 10:15:52;;;;;;;4.70;1.70;;;;;;;31.92;28.55;100478.00;105726;1253;65103;-71
2023/07/16 10:18:27;;;;;;;2.50;1.60;;;;;;;31.81;29.47;100475.55;105922;1257;60402;-72
2023/07/16 10:21:02;;;;;;;3.70;1.70;;;;;;;31.87;29.33;100475.92;105859;1254;64248;-72
2023/07/16 10:23:40;;;;;;;2.60;1.70;;;;;;;32.03;29.44;100476.55;105622;1254;60441;-69
2023/07/16 10:26:09;;;;;;;3.40;1.70;;;;;;;32.22;28.68;100473.36;105575;1254;60472;-71
2023/07/16 10:28:37;;;;;;;3.10;1.50;;;;;;;32.37;28.10;100467.96;105923;1260;65096;-70
2023/07/16 10:31:04;;;;;;;2.30;1.60;;;;;;;32.44;28.60;100472.55;106060;1254;60563;-70
2023/07/16 10:33:31;;;;;;;4.00;1.60;;;;;;;32.51;27.94;100475.65;105619;1254;64521;-71
2023/07/16 10:36:00;;;;;;;2.60;1.50;;;;;;;32.48;27.23;100472.95;106335;1257;60405;-71
2023/07/16 10:38:27;;;;;;;2.80;1.70;;;;;;;32.52;28.46;100470.30;106079;1253;60360;-69
2023/07/16 10:40:55;;;;;;;2.20;1.70;;;;;;;32.70;28.26;100469.20;105448;1257;65354;-73
2023/07/16 10:43:23;;;;;;;1.90;1.30;;;;;;;32.81;28.18;100463.79;106091;1259;60625;-70
2023/07/16 10:45:50;;;;;;;2.30;1.30;;;;;;;32.98;27.75;100457.52;106524;1254;64004;-71
2023/07/16 10:48:25;;;;;;;2.90;1.50;;;;;;;33.08;27.99;100461.41;105854;1254;60458;-70
2023/07/16 10:50:54;;;;;;;2.20;1.50;;;;;;;33.22;27.83;100460.73;105335;1254;60607;-71
2023/07/16 10:53:22;;;;;;;2.10;1.50;;;;;;;33.41;27.50;100464.48;105356;1254;64108;-70
2023/07/16 10:55:49;;;;;;;3.40;1.80;;;;;;;33.56;27.30;100463.35;106067;1254;60487;-71
2023/07/16 10:58:16;;;;;;;2.90;1.50;;;;;;;33.71;27.43;100459.05;105962;1254;63938;-68
2023/07/16 11:00:43;;;;;;;1.50;1.30;;;;;;;33.93;27.80;100459.67;105439;1257;60460;-68
2023/07/16 11:03:10;;;;;;;2.60;1.60;;;;;;;34.23;27.78;100463.48;105768;1253;60451;-68
2023/07/16 11:05:37;;;;;;;3.00;1.50;;;;;;;34.46;26.64;100460.95;105548;1256;64889;-67
2023/07/16 11:08:04;;;;;;;2.50;1.70;;;;;;;34.50;26.39;100464.84;105522;1254;60482;-68
2023/07/16 11:10:31;;;;;;;2.10;1.60;;;;;;;34.58;26.73;100464.15;105759;1253;63968;-68
2023/07/16 11:12:58;;;;;;;2.30;1.40;;;;;;;34.69;26.07;100454.68;105546;1255;60441;-68
2023/07/16 11:15:31;;;;;;;3.20;1.90;;;;;;;34.85;26.66;100455.96;105528;1254;60427;-68
2023/07/16 11:17:58;;;;;;;2.30;1.40;;;;;;;35.05;26.13;100455.98;105269;1254;63743;-67
2023/07/16 11:20:25;;;;;;;3.70;1.50;;;;;;;35.20;25.93;100456.95;105756;1256;60451;-66
2023/07/16 11:22:52;;;;;;;3.40;1.70;;;;;;;35.29;25.95;100456.89;105487;1254;64007;-68